<?xml version="1.0" encoding="UTF-8" standalone="no" ?>
<gpx xmlns="http://www.topografix.com/GPX/1/1" xmlns:xsi="http://www.w3.org/2001/XMLSchema-instance" xsi:schemaLocation="http://www.topografix.com/GPX/1/1 http://www.topografix.com/GPX/1/1/gpx.xsd" version="1.1" creator="VisuGPX - https://www.visugpx.com">
  <metadata>
    <name>Aigrefeuille_BourgEtMaine_7-11km</name>
    <desc><![CDATA[gnerando idor:7345184_7345399_7348406]]></desc>
  </metadata>
  <trk>
    <name><![CDATA[Aigrefeuille_ClocherAclocher_7.8km-7348406]]></name>
    <extensions>
      <line xmlns="http://www.topografix.com/GPX/gpx_style/0/2">
        <color>0000FF</color>
        <width>4</width>
      </line>
    </extensions>
    <trkseg>
      <trkpt lat="47.07732" lon="-1.39788">
        <ele>38</ele>
        <time>2023-10-29T17:08:04Z</time>
      </trkpt>
      <trkpt lat="47.07713" lon="-1.3978">
        <ele>38</ele>
        <time>2023-10-29T17:08:30Z</time>
      </trkpt>
      <trkpt lat="47.07692" lon="-1.39847">
        <ele>41</ele>
        <time>2023-10-29T17:09:37Z</time>
      </trkpt>
      <trkpt lat="47.0772" lon="-1.39889">
        <ele>42</ele>
        <time>2023-10-29T17:10:31Z</time>
      </trkpt>
      <trkpt lat="47.07722" lon="-1.39914">
        <ele>44</ele>
        <time>2023-10-29T17:10:54Z</time>
      </trkpt>
      <trkpt lat="47.07699" lon="-1.39944">
        <ele>44</ele>
        <time>2023-10-29T17:11:35Z</time>
      </trkpt>
      <trkpt lat="47.07656" lon="-1.39969">
        <ele>45</ele>
        <time>2023-10-29T17:12:36Z</time>
      </trkpt>
      <trkpt lat="47.07649" lon="-1.39957">
        <ele>44</ele>
        <time>2023-10-29T17:12:51Z</time>
      </trkpt>
      <trkpt lat="47.0764" lon="-1.39944">
        <ele>44</ele>
        <time>2023-10-29T17:13:08Z</time>
      </trkpt>
      <trkpt lat="47.0763" lon="-1.39931">
        <ele>43</ele>
        <time>2023-10-29T17:13:25Z</time>
      </trkpt>
      <trkpt lat="47.07622" lon="-1.39916">
        <ele>43</ele>
        <time>2023-10-29T17:13:43Z</time>
      </trkpt>
      <trkpt lat="47.07452" lon="-1.39893">
        <ele>38</ele>
        <time>2023-10-29T17:17:31Z</time>
      </trkpt>
      <trkpt lat="47.07239" lon="-1.40023">
        <ele>34</ele>
        <time>2023-10-29T17:22:38Z</time>
      </trkpt>
      <trkpt lat="47.07238" lon="-1.39995">
        <ele>34</ele>
        <time>2023-10-29T17:23:04Z</time>
      </trkpt>
      <trkpt lat="47.0725" lon="-1.39947">
        <ele>33</ele>
        <time>2023-10-29T17:23:50Z</time>
      </trkpt>
      <trkpt lat="47.07247" lon="-1.39815">
        <ele>32</ele>
        <time>2023-10-29T17:25:50Z</time>
      </trkpt>
      <trkpt lat="47.07231" lon="-1.39777">
        <ele>33</ele>
        <time>2023-10-29T17:26:31Z</time>
      </trkpt>
      <trkpt lat="47.07224" lon="-1.39763">
        <ele>33</ele>
        <time>2023-10-29T17:26:47Z</time>
      </trkpt>
      <trkpt lat="47.07221" lon="-1.39704">
        <ele>33</ele>
        <time>2023-10-29T17:27:41Z</time>
      </trkpt>
      <trkpt lat="47.07202" lon="-1.39682">
        <ele>33</ele>
        <time>2023-10-29T17:28:13Z</time>
      </trkpt>
      <trkpt lat="47.07205" lon="-1.39637">
        <ele>34</ele>
        <time>2023-10-29T17:28:54Z</time>
      </trkpt>
      <trkpt lat="47.07187" lon="-1.39577">
        <ele>35</ele>
        <time>2023-10-29T17:29:54Z</time>
      </trkpt>
      <trkpt lat="47.07137" lon="-1.39477">
        <ele>36</ele>
        <time>2023-10-29T17:31:46Z</time>
      </trkpt>
      <trkpt lat="47.07118" lon="-1.3951">
        <ele>37</ele>
        <time>2023-10-29T17:32:26Z</time>
      </trkpt>
      <trkpt lat="47.07097" lon="-1.39549">
        <ele>37</ele>
        <time>2023-10-29T17:33:11Z</time>
      </trkpt>
      <trkpt lat="47.07076" lon="-1.39583">
        <ele>36</ele>
        <time>2023-10-29T17:33:53Z</time>
      </trkpt>
      <trkpt lat="47.07049" lon="-1.39632">
        <ele>37</ele>
        <time>2023-10-29T17:34:50Z</time>
      </trkpt>
      <trkpt lat="47.07025" lon="-1.39669">
        <ele>38</ele>
        <time>2023-10-29T17:35:36Z</time>
      </trkpt>
      <trkpt lat="47.06946" lon="-1.39773">
        <ele>42</ele>
        <time>2023-10-29T17:37:58Z</time>
      </trkpt>
      <trkpt lat="47.06821" lon="-1.40026">
        <ele>44</ele>
        <time>2023-10-29T17:42:42Z</time>
      </trkpt>
      <trkpt lat="47.06779" lon="-1.40023">
        <ele>45</ele>
        <time>2023-10-29T17:43:38Z</time>
      </trkpt>
      <trkpt lat="47.06727" lon="-1.39993">
        <ele>45</ele>
        <time>2023-10-29T17:44:53Z</time>
      </trkpt>
      <trkpt lat="47.06614" lon="-1.39892">
        <ele>43</ele>
        <time>2023-10-29T17:47:49Z</time>
      </trkpt>
      <trkpt lat="47.06565" lon="-1.398">
        <ele>43</ele>
        <time>2023-10-29T17:49:35Z</time>
      </trkpt>
      <trkpt lat="47.06533" lon="-1.39696">
        <ele>42</ele>
        <time>2023-10-29T17:51:19Z</time>
      </trkpt>
      <trkpt lat="47.06621" lon="-1.39494">
        <ele>38</ele>
        <time>2023-10-29T17:54:57Z</time>
      </trkpt>
      <trkpt lat="47.06617" lon="-1.39358">
        <ele>36</ele>
        <time>2023-10-29T17:57:01Z</time>
      </trkpt>
      <trkpt lat="47.06664" lon="-1.39274">
        <ele>37</ele>
        <time>2023-10-29T17:58:40Z</time>
      </trkpt>
      <trkpt lat="47.06699" lon="-1.39202">
        <ele>37</ele>
        <time>2023-10-29T18:00:00Z</time>
      </trkpt>
      <trkpt lat="47.06405" lon="-1.38996">
        <ele>29</ele>
        <time>2023-10-29T18:07:15Z</time>
      </trkpt>
      <trkpt lat="47.06112" lon="-1.38671">
        <ele>31</ele>
        <time>2023-10-29T18:15:25Z</time>
      </trkpt>
      <trkpt lat="47.05744" lon="-1.38233">
        <ele>28</ele>
        <time>2023-10-29T18:25:57Z</time>
      </trkpt>
      <trkpt lat="47.05846" lon="-1.38136">
        <ele>27</ele>
        <time>2023-10-29T18:28:39Z</time>
      </trkpt>
      <trkpt lat="47.05937" lon="-1.3803">
        <ele>26</ele>
        <time>2023-10-29T18:31:14Z</time>
      </trkpt>
      <trkpt lat="47.05868" lon="-1.37947">
        <ele>28</ele>
        <time>2023-10-29T18:33:13Z</time>
      </trkpt>
      <trkpt lat="47.05916" lon="-1.37876">
        <ele>27</ele>
        <time>2023-10-29T18:34:44Z</time>
      </trkpt>
      <trkpt lat="47.05934" lon="-1.37932">
        <ele>26</ele>
        <time>2023-10-29T18:35:40Z</time>
      </trkpt>
      <trkpt lat="47.0595" lon="-1.3794">
        <ele>26</ele>
        <time>2023-10-29T18:36:03Z</time>
      </trkpt>
      <trkpt lat="47.05984" lon="-1.37904">
        <ele>25</ele>
        <time>2023-10-29T18:36:59Z</time>
      </trkpt>
      <trkpt lat="47.05997" lon="-1.37923">
        <ele>24</ele>
        <time>2023-10-29T18:37:23Z</time>
      </trkpt>
      <trkpt lat="47.06029" lon="-1.37921">
        <ele>24</ele>
        <time>2023-10-29T18:38:06Z</time>
      </trkpt>
      <trkpt lat="47.06058" lon="-1.37906">
        <ele>24</ele>
        <time>2023-10-29T18:38:47Z</time>
      </trkpt>
      <trkpt lat="47.06125" lon="-1.37801">
        <ele>26</ele>
        <time>2023-10-29T18:40:58Z</time>
      </trkpt>
      <trkpt lat="47.06113" lon="-1.37693">
        <ele>28</ele>
        <time>2023-10-29T18:42:37Z</time>
      </trkpt>
      <trkpt lat="47.06104" lon="-1.37612">
        <ele>27</ele>
        <time>2023-10-29T18:43:52Z</time>
      </trkpt>
      <trkpt lat="47.06101" lon="-1.37558">
        <ele>24</ele>
        <time>2023-10-29T18:44:41Z</time>
      </trkpt>
      <trkpt lat="47.06113" lon="-1.37513">
        <ele>21</ele>
        <time>2023-10-29T18:45:25Z</time>
      </trkpt>
      <trkpt lat="47.06128" lon="-1.3751">
        <ele>21</ele>
        <time>2023-10-29T18:45:45Z</time>
      </trkpt>
      <trkpt lat="47.06244" lon="-1.37522">
        <ele>20</ele>
        <time>2023-10-29T18:48:21Z</time>
      </trkpt>
      <trkpt lat="47.06294" lon="-1.37537">
        <ele>21</ele>
        <time>2023-10-29T18:49:29Z</time>
      </trkpt>
      <trkpt lat="47.0635" lon="-1.37561">
        <ele>22</ele>
        <time>2023-10-29T18:50:47Z</time>
      </trkpt>
      <trkpt lat="47.06413" lon="-1.37575">
        <ele>21</ele>
        <time>2023-10-29T18:52:12Z</time>
      </trkpt>
      <trkpt lat="47.06466" lon="-1.37582">
        <ele>20</ele>
        <time>2023-10-29T18:53:23Z</time>
      </trkpt>
      <trkpt lat="47.06486" lon="-1.37586">
        <ele>20</ele>
        <time>2023-10-29T18:53:50Z</time>
      </trkpt>
      <trkpt lat="47.06507" lon="-1.37596">
        <ele>20</ele>
        <time>2023-10-29T18:54:19Z</time>
      </trkpt>
      <trkpt lat="47.06542" lon="-1.37598">
        <ele>20</ele>
        <time>2023-10-29T18:55:06Z</time>
      </trkpt>
      <trkpt lat="47.0658" lon="-1.37607">
        <ele>21</ele>
        <time>2023-10-29T18:55:57Z</time>
      </trkpt>
      <trkpt lat="47.06638" lon="-1.37629">
        <ele>20</ele>
        <time>2023-10-29T18:57:17Z</time>
      </trkpt>
      <trkpt lat="47.0665" lon="-1.37641">
        <ele>20</ele>
        <time>2023-10-29T18:57:36Z</time>
      </trkpt>
      <trkpt lat="47.06687" lon="-1.37691">
        <ele>21</ele>
        <time>2023-10-29T18:58:44Z</time>
      </trkpt>
      <trkpt lat="47.06689" lon="-1.3771">
        <ele>22</ele>
        <time>2023-10-29T18:59:01Z</time>
      </trkpt>
      <trkpt lat="47.06668" lon="-1.37768">
        <ele>23</ele>
        <time>2023-10-29T19:00:01Z</time>
      </trkpt>
      <trkpt lat="47.06636" lon="-1.37777">
        <ele>25</ele>
        <time>2023-10-29T19:00:44Z</time>
      </trkpt>
      <trkpt lat="47.06635" lon="-1.37809">
        <ele>26</ele>
        <time>2023-10-29T19:01:13Z</time>
      </trkpt>
      <trkpt lat="47.06628" lon="-1.3785">
        <ele>28</ele>
        <time>2023-10-29T19:01:52Z</time>
      </trkpt>
      <trkpt lat="47.06622" lon="-1.37932">
        <ele>30</ele>
        <time>2023-10-29T19:03:07Z</time>
      </trkpt>
      <trkpt lat="47.06627" lon="-1.3801">
        <ele>30</ele>
        <time>2023-10-29T19:04:18Z</time>
      </trkpt>
      <trkpt lat="47.06651" lon="-1.38101">
        <ele>28</ele>
        <time>2023-10-29T19:05:47Z</time>
      </trkpt>
      <trkpt lat="47.06675" lon="-1.38176">
        <ele>27</ele>
        <time>2023-10-29T19:07:02Z</time>
      </trkpt>
      <trkpt lat="47.06699" lon="-1.38265">
        <ele>25</ele>
        <time>2023-10-29T19:08:29Z</time>
      </trkpt>
      <trkpt lat="47.06721" lon="-1.38325">
        <ele>25</ele>
        <time>2023-10-29T19:09:31Z</time>
      </trkpt>
      <trkpt lat="47.06773" lon="-1.38427">
        <ele>27</ele>
        <time>2023-10-29T19:11:27Z</time>
      </trkpt>
      <trkpt lat="47.06807" lon="-1.38502">
        <ele>24</ele>
        <time>2023-10-29T19:12:49Z</time>
      </trkpt>
      <trkpt lat="47.06822" lon="-1.38541">
        <ele>22</ele>
        <time>2023-10-29T19:13:29Z</time>
      </trkpt>
      <trkpt lat="47.06838" lon="-1.38525">
        <ele>20</ele>
        <time>2023-10-29T19:13:55Z</time>
      </trkpt>
      <trkpt lat="47.06848" lon="-1.38546">
        <ele>21</ele>
        <time>2023-10-29T19:14:18Z</time>
      </trkpt>
      <trkpt lat="47.06867" lon="-1.38553">
        <ele>21</ele>
        <time>2023-10-29T19:14:45Z</time>
      </trkpt>
      <trkpt lat="47.06888" lon="-1.38583">
        <ele>20</ele>
        <time>2023-10-29T19:15:24Z</time>
      </trkpt>
      <trkpt lat="47.06921" lon="-1.38638">
        <ele>20</ele>
        <time>2023-10-29T19:16:30Z</time>
      </trkpt>
      <trkpt lat="47.06929" lon="-1.38657">
        <ele>20</ele>
        <time>2023-10-29T19:16:51Z</time>
      </trkpt>
      <trkpt lat="47.0693" lon="-1.38689">
        <ele>22</ele>
        <time>2023-10-29T19:17:20Z</time>
      </trkpt>
      <trkpt lat="47.0694" lon="-1.38696">
        <ele>22</ele>
        <time>2023-10-29T19:17:34Z</time>
      </trkpt>
      <trkpt lat="47.06951" lon="-1.38706">
        <ele>22</ele>
        <time>2023-10-29T19:17:52Z</time>
      </trkpt>
      <trkpt lat="47.06967" lon="-1.38719">
        <ele>21</ele>
        <time>2023-10-29T19:18:16Z</time>
      </trkpt>
      <trkpt lat="47.07005" lon="-1.38762">
        <ele>20</ele>
        <time>2023-10-29T19:19:20Z</time>
      </trkpt>
      <trkpt lat="47.07051" lon="-1.38836">
        <ele>20</ele>
        <time>2023-10-29T19:20:51Z</time>
      </trkpt>
      <trkpt lat="47.07092" lon="-1.38925">
        <ele>21</ele>
        <time>2023-10-29T19:22:29Z</time>
      </trkpt>
      <trkpt lat="47.07144" lon="-1.38991">
        <ele>22</ele>
        <time>2023-10-29T19:24:01Z</time>
      </trkpt>
      <trkpt lat="47.07166" lon="-1.39036">
        <ele>25</ele>
        <time>2023-10-29T19:24:51Z</time>
      </trkpt>
      <trkpt lat="47.0719" lon="-1.39097">
        <ele>29</ele>
        <time>2023-10-29T19:25:55Z</time>
      </trkpt>
      <trkpt lat="47.072" lon="-1.39183">
        <ele>35</ele>
        <time>2023-10-29T19:27:14Z</time>
      </trkpt>
      <trkpt lat="47.07219" lon="-1.39286">
        <ele>36</ele>
        <time>2023-10-29T19:28:51Z</time>
      </trkpt>
      <trkpt lat="47.07261" lon="-1.39343">
        <ele>36</ele>
        <time>2023-10-29T19:30:08Z</time>
      </trkpt>
      <trkpt lat="47.07329" lon="-1.39444">
        <ele>36</ele>
        <time>2023-10-29T19:32:17Z</time>
      </trkpt>
      <trkpt lat="47.074" lon="-1.39554">
        <ele>33</ele>
        <time>2023-10-29T19:34:34Z</time>
      </trkpt>
      <trkpt lat="47.07454" lon="-1.3964">
        <ele>35</ele>
        <time>2023-10-29T19:36:21Z</time>
      </trkpt>
      <trkpt lat="47.07463" lon="-1.39655">
        <ele>36</ele>
        <time>2023-10-29T19:36:39Z</time>
      </trkpt>
      <trkpt lat="47.07467" lon="-1.39645">
        <ele>35</ele>
        <time>2023-10-29T19:36:49Z</time>
      </trkpt>
      <trkpt lat="47.07497" lon="-1.39685">
        <ele>37</ele>
        <time>2023-10-29T19:37:43Z</time>
      </trkpt>
      <trkpt lat="47.07509" lon="-1.39703">
        <ele>38</ele>
        <time>2023-10-29T19:38:06Z</time>
      </trkpt>
      <trkpt lat="47.07524" lon="-1.39702">
        <ele>38</ele>
        <time>2023-10-29T19:38:26Z</time>
      </trkpt>
      <trkpt lat="47.07554" lon="-1.39701">
        <ele>38</ele>
        <time>2023-10-29T19:39:06Z</time>
      </trkpt>
      <trkpt lat="47.07579" lon="-1.39717">
        <ele>40</ele>
        <time>2023-10-29T19:39:43Z</time>
      </trkpt>
      <trkpt lat="47.0758" lon="-1.39729">
        <ele>41</ele>
        <time>2023-10-29T19:39:54Z</time>
      </trkpt>
      <trkpt lat="47.07624" lon="-1.39743">
        <ele>40</ele>
        <time>2023-10-29T19:40:54Z</time>
      </trkpt>
      <trkpt lat="47.07662" lon="-1.39743">
        <ele>39</ele>
        <time>2023-10-29T19:41:45Z</time>
      </trkpt>
      <trkpt lat="47.07695" lon="-1.39746">
        <ele>38</ele>
        <time>2023-10-29T19:42:29Z</time>
      </trkpt>
      <trkpt lat="47.07709" lon="-1.3975">
        <ele>37</ele>
        <time>2023-10-29T19:42:48Z</time>
      </trkpt>
      <trkpt lat="47.07716" lon="-1.3977">
        <ele>38</ele>
        <time>2023-10-29T19:43:08Z</time>
      </trkpt>
      <trkpt lat="47.07734" lon="-1.39779">
        <ele>38</ele>
        <time>2023-10-29T19:43:34Z</time>
      </trkpt>
    </trkseg>
  </trk>
  <trk>
    <name><![CDATA[Aigrefeuille Bourg et Maine var 8.8km-7345399]]></name>
    <extensions>
      <line xmlns="http://www.topografix.com/GPX/gpx_style/0/2">
        <color>00FF00</color>
        <width>4</width>
      </line>
    </extensions>
    <trkseg>
      <trkpt lat="47.07736" lon="-1.39737">
        <ele>36</ele>
        <time>2023-10-29T17:07:47Z</time>
      </trkpt>
      <trkpt lat="47.07764" lon="-1.39702">
        <ele>33</ele>
        <time>2023-10-29T17:08:36Z</time>
      </trkpt>
      <trkpt lat="47.07838" lon="-1.39797">
        <ele>38</ele>
        <time>2023-10-29T17:10:47Z</time>
      </trkpt>
      <trkpt lat="47.07882" lon="-1.39843">
        <ele>39</ele>
        <time>2023-10-29T17:11:59Z</time>
      </trkpt>
      <trkpt lat="47.07907" lon="-1.39822">
        <ele>37</ele>
        <time>2023-10-29T17:12:38Z</time>
      </trkpt>
      <trkpt lat="47.07932" lon="-1.39815">
        <ele>34</ele>
        <time>2023-10-29T17:13:12Z</time>
      </trkpt>
      <trkpt lat="47.0796" lon="-1.39774">
        <ele>25</ele>
        <time>2023-10-29T17:14:04Z</time>
      </trkpt>
      <trkpt lat="47.08003" lon="-1.39803">
        <ele>25</ele>
        <time>2023-10-29T17:15:08Z</time>
      </trkpt>
      <trkpt lat="47.0803" lon="-1.39802">
        <ele>24</ele>
        <time>2023-10-29T17:15:44Z</time>
      </trkpt>
      <trkpt lat="47.08066" lon="-1.39817">
        <ele>23</ele>
        <time>2023-10-29T17:16:34Z</time>
      </trkpt>
      <trkpt lat="47.08069" lon="-1.39809">
        <ele>22</ele>
        <time>2023-10-29T17:16:42Z</time>
      </trkpt>
      <trkpt lat="47.08076" lon="-1.3981">
        <ele>22</ele>
        <time>2023-10-29T17:16:51Z</time>
      </trkpt>
      <trkpt lat="47.08108" lon="-1.39839">
        <ele>21</ele>
        <time>2023-10-29T17:17:41Z</time>
      </trkpt>
      <trkpt lat="47.08117" lon="-1.39849">
        <ele>21</ele>
        <time>2023-10-29T17:17:57Z</time>
      </trkpt>
      <trkpt lat="47.08135" lon="-1.39896">
        <ele>24</ele>
        <time>2023-10-29T17:18:46Z</time>
      </trkpt>
      <trkpt lat="47.08131" lon="-1.39911">
        <ele>26</ele>
        <time>2023-10-29T17:19:00Z</time>
      </trkpt>
      <trkpt lat="47.08142" lon="-1.3994">
        <ele>28</ele>
        <time>2023-10-29T17:19:30Z</time>
      </trkpt>
      <trkpt lat="47.08164" lon="-1.39973">
        <ele>30</ele>
        <time>2023-10-29T17:20:12Z</time>
      </trkpt>
      <trkpt lat="47.08175" lon="-1.39981">
        <ele>30</ele>
        <time>2023-10-29T17:20:29Z</time>
      </trkpt>
      <trkpt lat="47.08183" lon="-1.3999">
        <ele>30</ele>
        <time>2023-10-29T17:20:42Z</time>
      </trkpt>
      <trkpt lat="47.08194" lon="-1.40017">
        <ele>31</ele>
        <time>2023-10-29T17:21:11Z</time>
      </trkpt>
      <trkpt lat="47.08223" lon="-1.40048">
        <ele>31</ele>
        <time>2023-10-29T17:21:59Z</time>
      </trkpt>
      <trkpt lat="47.08236" lon="-1.40051">
        <ele>31</ele>
        <time>2023-10-29T17:22:16Z</time>
      </trkpt>
      <trkpt lat="47.08252" lon="-1.40068">
        <ele>31</ele>
        <time>2023-10-29T17:22:42Z</time>
      </trkpt>
      <trkpt lat="47.08279" lon="-1.40072">
        <ele>30</ele>
        <time>2023-10-29T17:23:19Z</time>
      </trkpt>
      <trkpt lat="47.08357" lon="-1.40138">
        <ele>33</ele>
        <time>2023-10-29T17:25:19Z</time>
      </trkpt>
      <trkpt lat="47.08373" lon="-1.40131">
        <ele>32</ele>
        <time>2023-10-29T17:25:41Z</time>
      </trkpt>
      <trkpt lat="47.08397" lon="-1.40137">
        <ele>33</ele>
        <time>2023-10-29T17:26:14Z</time>
      </trkpt>
      <trkpt lat="47.08444" lon="-1.40146">
        <ele>35</ele>
        <time>2023-10-29T17:27:17Z</time>
      </trkpt>
      <trkpt lat="47.08473" lon="-1.40172">
        <ele>37</ele>
        <time>2023-10-29T17:28:02Z</time>
      </trkpt>
      <trkpt lat="47.08473" lon="-1.40168">
        <ele>37</ele>
        <time>2023-10-29T17:28:06Z</time>
      </trkpt>
      <trkpt lat="47.08526" lon="-1.40139">
        <ele>32</ele>
        <time>2023-10-29T17:29:21Z</time>
      </trkpt>
      <trkpt lat="47.08551" lon="-1.40154">
        <ele>33</ele>
        <time>2023-10-29T17:29:57Z</time>
      </trkpt>
      <trkpt lat="47.08575" lon="-1.40153">
        <ele>32</ele>
        <time>2023-10-29T17:30:29Z</time>
      </trkpt>
      <trkpt lat="47.08626" lon="-1.40189">
        <ele>32</ele>
        <time>2023-10-29T17:31:45Z</time>
      </trkpt>
      <trkpt lat="47.08648" lon="-1.40204">
        <ele>31</ele>
        <time>2023-10-29T17:32:17Z</time>
      </trkpt>
      <trkpt lat="47.08691" lon="-1.40213">
        <ele>33</ele>
        <time>2023-10-29T17:33:15Z</time>
      </trkpt>
      <trkpt lat="47.08714" lon="-1.40151">
        <ele>28</ele>
        <time>2023-10-29T17:34:19Z</time>
      </trkpt>
      <trkpt lat="47.08775" lon="-1.40169">
        <ele>31</ele>
        <time>2023-10-29T17:35:42Z</time>
      </trkpt>
      <trkpt lat="47.08809" lon="-1.40232">
        <ele>35</ele>
        <time>2023-10-29T17:36:55Z</time>
      </trkpt>
      <trkpt lat="47.0886" lon="-1.40255">
        <ele>34</ele>
        <time>2023-10-29T17:38:07Z</time>
      </trkpt>
      <trkpt lat="47.08873" lon="-1.40292">
        <ele>34</ele>
        <time>2023-10-29T17:38:44Z</time>
      </trkpt>
      <trkpt lat="47.08896" lon="-1.40317">
        <ele>34</ele>
        <time>2023-10-29T17:39:23Z</time>
      </trkpt>
      <trkpt lat="47.08936" lon="-1.40338">
        <ele>33</ele>
        <time>2023-10-29T17:40:19Z</time>
      </trkpt>
      <trkpt lat="47.08983" lon="-1.40371">
        <ele>33</ele>
        <time>2023-10-29T17:41:29Z</time>
      </trkpt>
      <trkpt lat="47.09005" lon="-1.404">
        <ele>33</ele>
        <time>2023-10-29T17:42:08Z</time>
      </trkpt>
      <trkpt lat="47.09051" lon="-1.40389">
        <ele>28</ele>
        <time>2023-10-29T17:43:11Z</time>
      </trkpt>
      <trkpt lat="47.09094" lon="-1.40383">
        <ele>23</ele>
        <time>2023-10-29T17:44:08Z</time>
      </trkpt>
      <trkpt lat="47.09189" lon="-1.40447">
        <ele>23</ele>
        <time>2023-10-29T17:46:28Z</time>
      </trkpt>
      <trkpt lat="47.09297" lon="-1.40468">
        <ele>23</ele>
        <time>2023-10-29T17:48:53Z</time>
      </trkpt>
      <trkpt lat="47.09388" lon="-1.40478">
        <ele>22</ele>
        <time>2023-10-29T17:50:55Z</time>
      </trkpt>
      <trkpt lat="47.09461" lon="-1.40503">
        <ele>20</ele>
        <time>2023-10-29T17:52:35Z</time>
      </trkpt>
      <trkpt lat="47.09504" lon="-1.40523">
        <ele>19</ele>
        <time>2023-10-29T17:53:35Z</time>
      </trkpt>
      <trkpt lat="47.09573" lon="-1.40551">
        <ele>21</ele>
        <time>2023-10-29T17:55:11Z</time>
      </trkpt>
      <trkpt lat="47.09672" lon="-1.40599">
        <ele>20</ele>
        <time>2023-10-29T17:57:30Z</time>
      </trkpt>
      <trkpt lat="47.09722" lon="-1.40646">
        <ele>18</ele>
        <time>2023-10-29T17:58:49Z</time>
      </trkpt>
      <trkpt lat="47.09776" lon="-1.40808">
        <ele>15</ele>
        <time>2023-10-29T18:01:33Z</time>
      </trkpt>
      <trkpt lat="47.09756" lon="-1.40874">
        <ele>15</ele>
        <time>2023-10-29T18:02:38Z</time>
      </trkpt>
      <trkpt lat="47.09679" lon="-1.40903">
        <ele>24</ele>
        <time>2023-10-29T18:04:24Z</time>
      </trkpt>
      <trkpt lat="47.0962" lon="-1.4091">
        <ele>29</ele>
        <time>2023-10-29T18:05:43Z</time>
      </trkpt>
      <trkpt lat="47.09594" lon="-1.40944">
        <ele>31</ele>
        <time>2023-10-29T18:06:30Z</time>
      </trkpt>
      <trkpt lat="47.09554" lon="-1.40988">
        <ele>33</ele>
        <time>2023-10-29T18:07:37Z</time>
      </trkpt>
      <trkpt lat="47.09484" lon="-1.41037">
        <ele>35</ele>
        <time>2023-10-29T18:09:20Z</time>
      </trkpt>
      <trkpt lat="47.09383" lon="-1.4118">
        <ele>39</ele>
        <time>2023-10-29T18:12:27Z</time>
      </trkpt>
      <trkpt lat="47.0944" lon="-1.41254">
        <ele>39</ele>
        <time>2023-10-29T18:14:09Z</time>
      </trkpt>
      <trkpt lat="47.09519" lon="-1.413">
        <ele>38</ele>
        <time>2023-10-29T18:16:02Z</time>
      </trkpt>
      <trkpt lat="47.09628" lon="-1.41505">
        <ele>36</ele>
        <time>2023-10-29T18:19:58Z</time>
      </trkpt>
      <trkpt lat="47.09568" lon="-1.41576">
        <ele>37</ele>
        <time>2023-10-29T18:21:41Z</time>
      </trkpt>
      <trkpt lat="47.09481" lon="-1.41692">
        <ele>36</ele>
        <time>2023-10-29T18:24:18Z</time>
      </trkpt>
      <trkpt lat="47.09438" lon="-1.41704">
        <ele>37</ele>
        <time>2023-10-29T18:25:16Z</time>
      </trkpt>
      <trkpt lat="47.09413" lon="-1.41739">
        <ele>37</ele>
        <time>2023-10-29T18:26:03Z</time>
      </trkpt>
      <trkpt lat="47.09383" lon="-1.4177">
        <ele>37</ele>
        <time>2023-10-29T18:26:52Z</time>
      </trkpt>
      <trkpt lat="47.09345" lon="-1.41831">
        <ele>37</ele>
        <time>2023-10-29T18:28:07Z</time>
      </trkpt>
      <trkpt lat="47.09297" lon="-1.41952">
        <ele>36</ele>
        <time>2023-10-29T18:30:14Z</time>
      </trkpt>
      <trkpt lat="47.09239" lon="-1.42031">
        <ele>34</ele>
        <time>2023-10-29T18:31:59Z</time>
      </trkpt>
      <trkpt lat="47.09212" lon="-1.4205">
        <ele>35</ele>
        <time>2023-10-29T18:32:39Z</time>
      </trkpt>
      <trkpt lat="47.09179" lon="-1.42109">
        <ele>35</ele>
        <time>2023-10-29T18:33:49Z</time>
      </trkpt>
      <trkpt lat="47.0913" lon="-1.42212">
        <ele>35</ele>
        <time>2023-10-29T18:35:43Z</time>
      </trkpt>
      <trkpt lat="47.09016" lon="-1.42187">
        <ele>35</ele>
        <time>2023-10-29T18:38:17Z</time>
      </trkpt>
      <trkpt lat="47.08912" lon="-1.42142">
        <ele>37</ele>
        <time>2023-10-29T18:40:41Z</time>
      </trkpt>
      <trkpt lat="47.08763" lon="-1.42031">
        <ele>41</ele>
        <time>2023-10-29T18:44:24Z</time>
      </trkpt>
      <trkpt lat="47.08697" lon="-1.41968">
        <ele>43</ele>
        <time>2023-10-29T18:46:09Z</time>
      </trkpt>
      <trkpt lat="47.08653" lon="-1.41879">
        <ele>44</ele>
        <time>2023-10-29T18:47:49Z</time>
      </trkpt>
      <trkpt lat="47.08629" lon="-1.41757">
        <ele>45</ele>
        <time>2023-10-29T18:49:45Z</time>
      </trkpt>
      <trkpt lat="47.08576" lon="-1.41565">
        <ele>45</ele>
        <time>2023-10-29T18:52:53Z</time>
      </trkpt>
      <trkpt lat="47.08522" lon="-1.41459">
        <ele>44</ele>
        <time>2023-10-29T18:54:53Z</time>
      </trkpt>
      <trkpt lat="47.08481" lon="-1.41418">
        <ele>44</ele>
        <time>2023-10-29T18:55:59Z</time>
      </trkpt>
      <trkpt lat="47.08476" lon="-1.41357">
        <ele>44</ele>
        <time>2023-10-29T18:56:55Z</time>
      </trkpt>
      <trkpt lat="47.08447" lon="-1.41307">
        <ele>42</ele>
        <time>2023-10-29T18:57:55Z</time>
      </trkpt>
      <trkpt lat="47.08441" lon="-1.41289">
        <ele>42</ele>
        <time>2023-10-29T18:58:13Z</time>
      </trkpt>
      <trkpt lat="47.08211" lon="-1.41042">
        <ele>38</ele>
        <time>2023-10-29T19:04:33Z</time>
      </trkpt>
      <trkpt lat="47.08154" lon="-1.41098">
        <ele>39</ele>
        <time>2023-10-29T19:06:05Z</time>
      </trkpt>
      <trkpt lat="47.08115" lon="-1.41125">
        <ele>39</ele>
        <time>2023-10-29T19:07:02Z</time>
      </trkpt>
      <trkpt lat="47.08109" lon="-1.41169">
        <ele>39</ele>
        <time>2023-10-29T19:07:43Z</time>
      </trkpt>
      <trkpt lat="47.08094" lon="-1.41173">
        <ele>39</ele>
        <time>2023-10-29T19:08:04Z</time>
      </trkpt>
      <trkpt lat="47.08076" lon="-1.41161">
        <ele>39</ele>
        <time>2023-10-29T19:08:30Z</time>
      </trkpt>
      <trkpt lat="47.08029" lon="-1.41202">
        <ele>40</ele>
        <time>2023-10-29T19:09:43Z</time>
      </trkpt>
      <trkpt lat="47.07933" lon="-1.41244">
        <ele>38</ele>
        <time>2023-10-29T19:11:57Z</time>
      </trkpt>
      <trkpt lat="47.07882" lon="-1.41304">
        <ele>39</ele>
        <time>2023-10-29T19:13:24Z</time>
      </trkpt>
      <trkpt lat="47.07833" lon="-1.41252">
        <ele>41</ele>
        <time>2023-10-29T19:14:44Z</time>
      </trkpt>
      <trkpt lat="47.07846" lon="-1.41211">
        <ele>42</ele>
        <time>2023-10-29T19:15:26Z</time>
      </trkpt>
      <trkpt lat="47.07781" lon="-1.41154">
        <ele>46</ele>
        <time>2023-10-29T19:17:07Z</time>
      </trkpt>
      <trkpt lat="47.07745" lon="-1.41121">
        <ele>48</ele>
        <time>2023-10-29T19:18:03Z</time>
      </trkpt>
      <trkpt lat="47.07689" lon="-1.41083">
        <ele>50</ele>
        <time>2023-10-29T19:19:26Z</time>
      </trkpt>
      <trkpt lat="47.07727" lon="-1.40981">
        <ele>51</ele>
        <time>2023-10-29T19:21:11Z</time>
      </trkpt>
      <trkpt lat="47.07759" lon="-1.40872">
        <ele>53</ele>
        <time>2023-10-29T19:22:59Z</time>
      </trkpt>
      <trkpt lat="47.07778" lon="-1.40827">
        <ele>52</ele>
        <time>2023-10-29T19:23:47Z</time>
      </trkpt>
      <trkpt lat="47.07759" lon="-1.40766">
        <ele>51</ele>
        <time>2023-10-29T19:24:48Z</time>
      </trkpt>
      <trkpt lat="47.07737" lon="-1.40743">
        <ele>49</ele>
        <time>2023-10-29T19:25:24Z</time>
      </trkpt>
      <trkpt lat="47.0769" lon="-1.40668">
        <ele>46</ele>
        <time>2023-10-29T19:26:57Z</time>
      </trkpt>
      <trkpt lat="47.07787" lon="-1.40555">
        <ele>48</ele>
        <time>2023-10-29T19:29:42Z</time>
      </trkpt>
      <trkpt lat="47.07787" lon="-1.40504">
        <ele>47</ele>
        <time>2023-10-29T19:30:28Z</time>
      </trkpt>
      <trkpt lat="47.07774" lon="-1.40432">
        <ele>46</ele>
        <time>2023-10-29T19:31:36Z</time>
      </trkpt>
      <trkpt lat="47.07593" lon="-1.40546">
        <ele>42</ele>
        <time>2023-10-29T19:35:59Z</time>
      </trkpt>
      <trkpt lat="47.07596" lon="-1.40568">
        <ele>42</ele>
        <time>2023-10-29T19:36:19Z</time>
      </trkpt>
      <trkpt lat="47.0754" lon="-1.40596">
        <ele>41</ele>
        <time>2023-10-29T19:37:38Z</time>
      </trkpt>
      <trkpt lat="47.07511" lon="-1.40442">
        <ele>42</ele>
        <time>2023-10-29T19:40:03Z</time>
      </trkpt>
      <trkpt lat="47.07507" lon="-1.4035">
        <ele>40</ele>
        <time>2023-10-29T19:41:27Z</time>
      </trkpt>
      <trkpt lat="47.07462" lon="-1.40323">
        <ele>38</ele>
        <time>2023-10-29T19:42:32Z</time>
      </trkpt>
      <trkpt lat="47.07384" lon="-1.40274">
        <ele>35</ele>
        <time>2023-10-29T19:44:25Z</time>
      </trkpt>
      <trkpt lat="47.07392" lon="-1.40166">
        <ele>35</ele>
        <time>2023-10-29T19:46:04Z</time>
      </trkpt>
      <trkpt lat="47.07382" lon="-1.40083">
        <ele>36</ele>
        <time>2023-10-29T19:47:21Z</time>
      </trkpt>
      <trkpt lat="47.07368" lon="-1.39948">
        <ele>35</ele>
        <time>2023-10-29T19:49:25Z</time>
      </trkpt>
      <trkpt lat="47.07405" lon="-1.39932">
        <ele>36</ele>
        <time>2023-10-29T19:50:16Z</time>
      </trkpt>
      <trkpt lat="47.07443" lon="-1.39903">
        <ele>37</ele>
        <time>2023-10-29T19:51:13Z</time>
      </trkpt>
      <trkpt lat="47.07465" lon="-1.39901">
        <ele>38</ele>
        <time>2023-10-29T19:51:43Z</time>
      </trkpt>
      <trkpt lat="47.07493" lon="-1.39893">
        <ele>40</ele>
        <time>2023-10-29T19:52:21Z</time>
      </trkpt>
      <trkpt lat="47.07565" lon="-1.39905">
        <ele>42</ele>
        <time>2023-10-29T19:53:58Z</time>
      </trkpt>
      <trkpt lat="47.07618" lon="-1.39908">
        <ele>43</ele>
        <time>2023-10-29T19:55:08Z</time>
      </trkpt>
      <trkpt lat="47.07519" lon="-1.39758">
        <ele>39</ele>
        <time>2023-10-29T19:58:18Z</time>
      </trkpt>
      <trkpt lat="47.07537" lon="-1.39722">
        <ele>39</ele>
        <time>2023-10-29T19:58:59Z</time>
      </trkpt>
      <trkpt lat="47.07733" lon="-1.39758">
        <ele>37</ele>
        <time>2023-10-29T20:03:22Z</time>
      </trkpt>
      <trkpt lat="47.07747" lon="-1.39797">
        <ele>38</ele>
        <time>2023-10-29T20:04:02Z</time>
      </trkpt>
    </trkseg>
  </trk>
  <trk>
    <name><![CDATA[Aigrefeuille_BourgEtMaine_11km-7345184]]></name>
    <extensions>
      <line xmlns="http://www.topografix.com/GPX/gpx_style/0/2">
        <color>FF0000</color>
        <width>4</width>
      </line>
    </extensions>
    <trkseg>
      <trkpt lat="47.07729" lon="-1.39789">
        <ele>38</ele>
        <time>2023-10-29T17:07:30Z</time>
      </trkpt>
      <trkpt lat="47.07799" lon="-1.39745">
        <ele>35</ele>
        <time>2023-10-29T17:09:12Z</time>
      </trkpt>
      <trkpt lat="47.07838" lon="-1.39797">
        <ele>38</ele>
        <time>2023-10-29T17:10:22Z</time>
      </trkpt>
      <trkpt lat="47.07882" lon="-1.39843">
        <ele>39</ele>
        <time>2023-10-29T17:11:34Z</time>
      </trkpt>
      <trkpt lat="47.07907" lon="-1.39822">
        <ele>37</ele>
        <time>2023-10-29T17:12:12Z</time>
      </trkpt>
      <trkpt lat="47.07932" lon="-1.39815">
        <ele>34</ele>
        <time>2023-10-29T17:12:46Z</time>
      </trkpt>
      <trkpt lat="47.0796" lon="-1.39774">
        <ele>25</ele>
        <time>2023-10-29T17:13:39Z</time>
      </trkpt>
      <trkpt lat="47.08003" lon="-1.39803">
        <ele>25</ele>
        <time>2023-10-29T17:14:42Z</time>
      </trkpt>
      <trkpt lat="47.0803" lon="-1.39802">
        <ele>24</ele>
        <time>2023-10-29T17:15:18Z</time>
      </trkpt>
      <trkpt lat="47.08066" lon="-1.39817">
        <ele>23</ele>
        <time>2023-10-29T17:16:08Z</time>
      </trkpt>
      <trkpt lat="47.08069" lon="-1.39809">
        <ele>22</ele>
        <time>2023-10-29T17:16:17Z</time>
      </trkpt>
      <trkpt lat="47.08076" lon="-1.3981">
        <ele>22</ele>
        <time>2023-10-29T17:16:26Z</time>
      </trkpt>
      <trkpt lat="47.08108" lon="-1.39839">
        <ele>21</ele>
        <time>2023-10-29T17:17:16Z</time>
      </trkpt>
      <trkpt lat="47.08117" lon="-1.39849">
        <ele>21</ele>
        <time>2023-10-29T17:17:31Z</time>
      </trkpt>
      <trkpt lat="47.08135" lon="-1.39896">
        <ele>24</ele>
        <time>2023-10-29T17:18:20Z</time>
      </trkpt>
      <trkpt lat="47.08131" lon="-1.39911">
        <ele>26</ele>
        <time>2023-10-29T17:18:35Z</time>
      </trkpt>
      <trkpt lat="47.08142" lon="-1.3994">
        <ele>28</ele>
        <time>2023-10-29T17:19:05Z</time>
      </trkpt>
      <trkpt lat="47.08164" lon="-1.39973">
        <ele>30</ele>
        <time>2023-10-29T17:19:47Z</time>
      </trkpt>
      <trkpt lat="47.08175" lon="-1.39981">
        <ele>30</ele>
        <time>2023-10-29T17:20:03Z</time>
      </trkpt>
      <trkpt lat="47.08183" lon="-1.3999">
        <ele>30</ele>
        <time>2023-10-29T17:20:17Z</time>
      </trkpt>
      <trkpt lat="47.08194" lon="-1.40017">
        <ele>31</ele>
        <time>2023-10-29T17:20:45Z</time>
      </trkpt>
      <trkpt lat="47.08223" lon="-1.40048">
        <ele>31</ele>
        <time>2023-10-29T17:21:33Z</time>
      </trkpt>
      <trkpt lat="47.08236" lon="-1.40051">
        <ele>31</ele>
        <time>2023-10-29T17:21:51Z</time>
      </trkpt>
      <trkpt lat="47.08252" lon="-1.40068">
        <ele>31</ele>
        <time>2023-10-29T17:22:17Z</time>
      </trkpt>
      <trkpt lat="47.08279" lon="-1.40072">
        <ele>30</ele>
        <time>2023-10-29T17:22:53Z</time>
      </trkpt>
      <trkpt lat="47.08293" lon="-1.40084">
        <ele>30</ele>
        <time>2023-10-29T17:23:15Z</time>
      </trkpt>
      <trkpt lat="47.08357" lon="-1.40138">
        <ele>33</ele>
        <time>2023-10-29T17:24:54Z</time>
      </trkpt>
      <trkpt lat="47.08373" lon="-1.40131">
        <ele>32</ele>
        <time>2023-10-29T17:25:16Z</time>
      </trkpt>
      <trkpt lat="47.08397" lon="-1.40137">
        <ele>33</ele>
        <time>2023-10-29T17:25:48Z</time>
      </trkpt>
      <trkpt lat="47.08444" lon="-1.40146">
        <ele>35</ele>
        <time>2023-10-29T17:26:52Z</time>
      </trkpt>
      <trkpt lat="47.08473" lon="-1.40172">
        <ele>37</ele>
        <time>2023-10-29T17:27:37Z</time>
      </trkpt>
      <trkpt lat="47.08473" lon="-1.40168">
        <ele>37</ele>
        <time>2023-10-29T17:27:41Z</time>
      </trkpt>
      <trkpt lat="47.08526" lon="-1.40139">
        <ele>32</ele>
        <time>2023-10-29T17:28:56Z</time>
      </trkpt>
      <trkpt lat="47.08551" lon="-1.40154">
        <ele>33</ele>
        <time>2023-10-29T17:29:32Z</time>
      </trkpt>
      <trkpt lat="47.08575" lon="-1.40153">
        <ele>32</ele>
        <time>2023-10-29T17:30:04Z</time>
      </trkpt>
      <trkpt lat="47.08626" lon="-1.40189">
        <ele>32</ele>
        <time>2023-10-29T17:31:20Z</time>
      </trkpt>
      <trkpt lat="47.08648" lon="-1.40204">
        <ele>31</ele>
        <time>2023-10-29T17:31:52Z</time>
      </trkpt>
      <trkpt lat="47.08691" lon="-1.40213">
        <ele>33</ele>
        <time>2023-10-29T17:32:50Z</time>
      </trkpt>
      <trkpt lat="47.08714" lon="-1.40151">
        <ele>28</ele>
        <time>2023-10-29T17:33:54Z</time>
      </trkpt>
      <trkpt lat="47.08775" lon="-1.40169">
        <ele>31</ele>
        <time>2023-10-29T17:35:17Z</time>
      </trkpt>
      <trkpt lat="47.08809" lon="-1.40232">
        <ele>35</ele>
        <time>2023-10-29T17:36:30Z</time>
      </trkpt>
      <trkpt lat="47.0886" lon="-1.40255">
        <ele>34</ele>
        <time>2023-10-29T17:37:41Z</time>
      </trkpt>
      <trkpt lat="47.08873" lon="-1.40292">
        <ele>34</ele>
        <time>2023-10-29T17:38:19Z</time>
      </trkpt>
      <trkpt lat="47.08896" lon="-1.40317">
        <ele>34</ele>
        <time>2023-10-29T17:38:57Z</time>
      </trkpt>
      <trkpt lat="47.08936" lon="-1.40338">
        <ele>33</ele>
        <time>2023-10-29T17:39:54Z</time>
      </trkpt>
      <trkpt lat="47.08983" lon="-1.40371">
        <ele>33</ele>
        <time>2023-10-29T17:41:04Z</time>
      </trkpt>
      <trkpt lat="47.09005" lon="-1.404">
        <ele>33</ele>
        <time>2023-10-29T17:41:43Z</time>
      </trkpt>
      <trkpt lat="47.09051" lon="-1.40389">
        <ele>28</ele>
        <time>2023-10-29T17:42:45Z</time>
      </trkpt>
      <trkpt lat="47.09094" lon="-1.40383">
        <ele>23</ele>
        <time>2023-10-29T17:43:43Z</time>
      </trkpt>
      <trkpt lat="47.09189" lon="-1.40447">
        <ele>23</ele>
        <time>2023-10-29T17:46:02Z</time>
      </trkpt>
      <trkpt lat="47.09297" lon="-1.40468">
        <ele>23</ele>
        <time>2023-10-29T17:48:28Z</time>
      </trkpt>
      <trkpt lat="47.09388" lon="-1.40478">
        <ele>22</ele>
        <time>2023-10-29T17:50:29Z</time>
      </trkpt>
      <trkpt lat="47.09461" lon="-1.40503">
        <ele>20</ele>
        <time>2023-10-29T17:52:09Z</time>
      </trkpt>
      <trkpt lat="47.09504" lon="-1.40523">
        <ele>19</ele>
        <time>2023-10-29T17:53:10Z</time>
      </trkpt>
      <trkpt lat="47.09573" lon="-1.40551">
        <ele>21</ele>
        <time>2023-10-29T17:54:45Z</time>
      </trkpt>
      <trkpt lat="47.09672" lon="-1.40599">
        <ele>20</ele>
        <time>2023-10-29T17:57:04Z</time>
      </trkpt>
      <trkpt lat="47.09722" lon="-1.40646">
        <ele>18</ele>
        <time>2023-10-29T17:58:24Z</time>
      </trkpt>
      <trkpt lat="47.09776" lon="-1.40808">
        <ele>15</ele>
        <time>2023-10-29T18:01:07Z</time>
      </trkpt>
      <trkpt lat="47.09756" lon="-1.40874">
        <ele>15</ele>
        <time>2023-10-29T18:02:13Z</time>
      </trkpt>
      <trkpt lat="47.09679" lon="-1.40903">
        <ele>24</ele>
        <time>2023-10-29T18:03:59Z</time>
      </trkpt>
      <trkpt lat="47.0962" lon="-1.4091">
        <ele>29</ele>
        <time>2023-10-29T18:05:18Z</time>
      </trkpt>
      <trkpt lat="47.09594" lon="-1.40944">
        <ele>31</ele>
        <time>2023-10-29T18:06:05Z</time>
      </trkpt>
      <trkpt lat="47.09554" lon="-1.40988">
        <ele>33</ele>
        <time>2023-10-29T18:07:11Z</time>
      </trkpt>
      <trkpt lat="47.09484" lon="-1.41037">
        <ele>35</ele>
        <time>2023-10-29T18:08:55Z</time>
      </trkpt>
      <trkpt lat="47.09383" lon="-1.4118">
        <ele>39</ele>
        <time>2023-10-29T18:12:02Z</time>
      </trkpt>
      <trkpt lat="47.0944" lon="-1.41254">
        <ele>39</ele>
        <time>2023-10-29T18:13:43Z</time>
      </trkpt>
      <trkpt lat="47.09519" lon="-1.413">
        <ele>38</ele>
        <time>2023-10-29T18:15:37Z</time>
      </trkpt>
      <trkpt lat="47.09628" lon="-1.41505">
        <ele>36</ele>
        <time>2023-10-29T18:19:33Z</time>
      </trkpt>
      <trkpt lat="47.09691" lon="-1.41638">
        <ele>35</ele>
        <time>2023-10-29T18:22:00Z</time>
      </trkpt>
      <trkpt lat="47.09773" lon="-1.41707">
        <ele>31</ele>
        <time>2023-10-29T18:24:06Z</time>
      </trkpt>
      <trkpt lat="47.09854" lon="-1.41786">
        <ele>28</ele>
        <time>2023-10-29T18:26:16Z</time>
      </trkpt>
      <trkpt lat="47.09856" lon="-1.41883">
        <ele>31</ele>
        <time>2023-10-29T18:27:44Z</time>
      </trkpt>
      <trkpt lat="47.09869" lon="-1.41987">
        <ele>34</ele>
        <time>2023-10-29T18:29:20Z</time>
      </trkpt>
      <trkpt lat="47.09871" lon="-1.42041">
        <ele>36</ele>
        <time>2023-10-29T18:30:10Z</time>
      </trkpt>
      <trkpt lat="47.09908" lon="-1.42184">
        <ele>39</ele>
        <time>2023-10-29T18:32:28Z</time>
      </trkpt>
      <trkpt lat="47.09914" lon="-1.42336">
        <ele>36</ele>
        <time>2023-10-29T18:34:47Z</time>
      </trkpt>
      <trkpt lat="47.09929" lon="-1.42568">
        <ele>35</ele>
        <time>2023-10-29T18:38:19Z</time>
      </trkpt>
      <trkpt lat="47.09881" lon="-1.42552">
        <ele>37</ele>
        <time>2023-10-29T18:39:24Z</time>
      </trkpt>
      <trkpt lat="47.09863" lon="-1.4258">
        <ele>37</ele>
        <time>2023-10-29T18:39:59Z</time>
      </trkpt>
      <trkpt lat="47.09793" lon="-1.42623">
        <ele>39</ele>
        <time>2023-10-29T18:41:40Z</time>
      </trkpt>
      <trkpt lat="47.0977" lon="-1.4266">
        <ele>40</ele>
        <time>2023-10-29T18:42:26Z</time>
      </trkpt>
      <trkpt lat="47.09747" lon="-1.42709">
        <ele>40</ele>
        <time>2023-10-29T18:43:20Z</time>
      </trkpt>
      <trkpt lat="47.09708" lon="-1.42749">
        <ele>40</ele>
        <time>2023-10-29T18:44:23Z</time>
      </trkpt>
      <trkpt lat="47.09635" lon="-1.42809">
        <ele>38</ele>
        <time>2023-10-29T18:46:15Z</time>
      </trkpt>
      <trkpt lat="47.09593" lon="-1.42833">
        <ele>38</ele>
        <time>2023-10-29T18:47:15Z</time>
      </trkpt>
      <trkpt lat="47.09531" lon="-1.42852">
        <ele>39</ele>
        <time>2023-10-29T18:48:40Z</time>
      </trkpt>
      <trkpt lat="47.09508" lon="-1.42881">
        <ele>39</ele>
        <time>2023-10-29T18:49:20Z</time>
      </trkpt>
      <trkpt lat="47.09468" lon="-1.42904">
        <ele>39</ele>
        <time>2023-10-29T18:50:18Z</time>
      </trkpt>
      <trkpt lat="47.09368" lon="-1.43094">
        <ele>40</ele>
        <time>2023-10-29T18:53:56Z</time>
      </trkpt>
      <trkpt lat="47.09249" lon="-1.42986">
        <ele>41</ele>
        <time>2023-10-29T18:57:02Z</time>
      </trkpt>
      <trkpt lat="47.09009" lon="-1.42777">
        <ele>39</ele>
        <time>2023-10-29T19:03:15Z</time>
      </trkpt>
      <trkpt lat="47.08885" lon="-1.42676">
        <ele>39</ele>
        <time>2023-10-29T19:06:24Z</time>
      </trkpt>
      <trkpt lat="47.08984" lon="-1.42496">
        <ele>37</ele>
        <time>2023-10-29T19:09:54Z</time>
      </trkpt>
      <trkpt lat="47.09055" lon="-1.42364">
        <ele>35</ele>
        <time>2023-10-29T19:12:27Z</time>
      </trkpt>
      <trkpt lat="47.0913" lon="-1.42212">
        <ele>35</ele>
        <time>2023-10-29T19:15:18Z</time>
      </trkpt>
      <trkpt lat="47.09016" lon="-1.42187">
        <ele>35</ele>
        <time>2023-10-29T19:17:51Z</time>
      </trkpt>
      <trkpt lat="47.08912" lon="-1.42142">
        <ele>37</ele>
        <time>2023-10-29T19:20:16Z</time>
      </trkpt>
      <trkpt lat="47.08763" lon="-1.42031">
        <ele>41</ele>
        <time>2023-10-29T19:23:59Z</time>
      </trkpt>
      <trkpt lat="47.08697" lon="-1.41968">
        <ele>43</ele>
        <time>2023-10-29T19:25:44Z</time>
      </trkpt>
      <trkpt lat="47.08653" lon="-1.41879">
        <ele>44</ele>
        <time>2023-10-29T19:27:24Z</time>
      </trkpt>
      <trkpt lat="47.08629" lon="-1.41757">
        <ele>45</ele>
        <time>2023-10-29T19:29:19Z</time>
      </trkpt>
      <trkpt lat="47.08576" lon="-1.41565">
        <ele>45</ele>
        <time>2023-10-29T19:32:28Z</time>
      </trkpt>
      <trkpt lat="47.08522" lon="-1.41459">
        <ele>44</ele>
        <time>2023-10-29T19:34:28Z</time>
      </trkpt>
      <trkpt lat="47.08481" lon="-1.41418">
        <ele>44</ele>
        <time>2023-10-29T19:35:34Z</time>
      </trkpt>
      <trkpt lat="47.08476" lon="-1.41357">
        <ele>44</ele>
        <time>2023-10-29T19:36:30Z</time>
      </trkpt>
      <trkpt lat="47.08447" lon="-1.41307">
        <ele>42</ele>
        <time>2023-10-29T19:37:30Z</time>
      </trkpt>
      <trkpt lat="47.08441" lon="-1.41289">
        <ele>42</ele>
        <time>2023-10-29T19:37:48Z</time>
      </trkpt>
      <trkpt lat="47.0825" lon="-1.41084">
        <ele>39</ele>
        <time>2023-10-29T19:43:04Z</time>
      </trkpt>
      <trkpt lat="47.08211" lon="-1.41042">
        <ele>38</ele>
        <time>2023-10-29T19:44:08Z</time>
      </trkpt>
      <trkpt lat="47.08154" lon="-1.41098">
        <ele>39</ele>
        <time>2023-10-29T19:45:40Z</time>
      </trkpt>
      <trkpt lat="47.08115" lon="-1.41125">
        <ele>39</ele>
        <time>2023-10-29T19:46:37Z</time>
      </trkpt>
      <trkpt lat="47.08109" lon="-1.41169">
        <ele>39</ele>
        <time>2023-10-29T19:47:18Z</time>
      </trkpt>
      <trkpt lat="47.08094" lon="-1.41173">
        <ele>39</ele>
        <time>2023-10-29T19:47:38Z</time>
      </trkpt>
      <trkpt lat="47.08076" lon="-1.41161">
        <ele>39</ele>
        <time>2023-10-29T19:48:05Z</time>
      </trkpt>
      <trkpt lat="47.08029" lon="-1.41202">
        <ele>40</ele>
        <time>2023-10-29T19:49:18Z</time>
      </trkpt>
      <trkpt lat="47.07933" lon="-1.41244">
        <ele>38</ele>
        <time>2023-10-29T19:51:31Z</time>
      </trkpt>
      <trkpt lat="47.07882" lon="-1.41304">
        <ele>39</ele>
        <time>2023-10-29T19:52:58Z</time>
      </trkpt>
      <trkpt lat="47.07833" lon="-1.41252">
        <ele>41</ele>
        <time>2023-10-29T19:54:19Z</time>
      </trkpt>
      <trkpt lat="47.07846" lon="-1.41211">
        <ele>42</ele>
        <time>2023-10-29T19:55:00Z</time>
      </trkpt>
      <trkpt lat="47.07781" lon="-1.41154">
        <ele>46</ele>
        <time>2023-10-29T19:56:41Z</time>
      </trkpt>
      <trkpt lat="47.07745" lon="-1.41121">
        <ele>48</ele>
        <time>2023-10-29T19:57:38Z</time>
      </trkpt>
      <trkpt lat="47.07689" lon="-1.41083">
        <ele>50</ele>
        <time>2023-10-29T19:59:00Z</time>
      </trkpt>
      <trkpt lat="47.07727" lon="-1.40981">
        <ele>51</ele>
        <time>2023-10-29T20:00:46Z</time>
      </trkpt>
      <trkpt lat="47.07759" lon="-1.40872">
        <ele>53</ele>
        <time>2023-10-29T20:02:34Z</time>
      </trkpt>
      <trkpt lat="47.07778" lon="-1.40827">
        <ele>52</ele>
        <time>2023-10-29T20:03:22Z</time>
      </trkpt>
      <trkpt lat="47.07759" lon="-1.40766">
        <ele>51</ele>
        <time>2023-10-29T20:04:23Z</time>
      </trkpt>
      <trkpt lat="47.07737" lon="-1.40743">
        <ele>49</ele>
        <time>2023-10-29T20:04:59Z</time>
      </trkpt>
      <trkpt lat="47.0769" lon="-1.40668">
        <ele>46</ele>
        <time>2023-10-29T20:06:31Z</time>
      </trkpt>
      <trkpt lat="47.07787" lon="-1.40555">
        <ele>48</ele>
        <time>2023-10-29T20:09:17Z</time>
      </trkpt>
      <trkpt lat="47.07787" lon="-1.40504">
        <ele>47</ele>
        <time>2023-10-29T20:10:03Z</time>
      </trkpt>
      <trkpt lat="47.07774" lon="-1.40432">
        <ele>46</ele>
        <time>2023-10-29T20:11:11Z</time>
      </trkpt>
      <trkpt lat="47.07593" lon="-1.40546">
        <ele>42</ele>
        <time>2023-10-29T20:15:34Z</time>
      </trkpt>
      <trkpt lat="47.07596" lon="-1.40568">
        <ele>42</ele>
        <time>2023-10-29T20:15:54Z</time>
      </trkpt>
      <trkpt lat="47.0754" lon="-1.40596">
        <ele>41</ele>
        <time>2023-10-29T20:17:13Z</time>
      </trkpt>
      <trkpt lat="47.07511" lon="-1.40442">
        <ele>42</ele>
        <time>2023-10-29T20:19:38Z</time>
      </trkpt>
      <trkpt lat="47.07507" lon="-1.4035">
        <ele>40</ele>
        <time>2023-10-29T20:21:02Z</time>
      </trkpt>
      <trkpt lat="47.07462" lon="-1.40323">
        <ele>38</ele>
        <time>2023-10-29T20:22:07Z</time>
      </trkpt>
      <trkpt lat="47.07384" lon="-1.40274">
        <ele>35</ele>
        <time>2023-10-29T20:24:00Z</time>
      </trkpt>
      <trkpt lat="47.07392" lon="-1.40166">
        <ele>35</ele>
        <time>2023-10-29T20:25:39Z</time>
      </trkpt>
      <trkpt lat="47.07382" lon="-1.40083">
        <ele>36</ele>
        <time>2023-10-29T20:26:55Z</time>
      </trkpt>
      <trkpt lat="47.07368" lon="-1.39948">
        <ele>35</ele>
        <time>2023-10-29T20:28:59Z</time>
      </trkpt>
      <trkpt lat="47.07405" lon="-1.39932">
        <ele>36</ele>
        <time>2023-10-29T20:29:51Z</time>
      </trkpt>
      <trkpt lat="47.07443" lon="-1.39903">
        <ele>37</ele>
        <time>2023-10-29T20:30:48Z</time>
      </trkpt>
      <trkpt lat="47.07465" lon="-1.39901">
        <ele>38</ele>
        <time>2023-10-29T20:31:17Z</time>
      </trkpt>
      <trkpt lat="47.07493" lon="-1.39893">
        <ele>40</ele>
        <time>2023-10-29T20:31:56Z</time>
      </trkpt>
      <trkpt lat="47.07565" lon="-1.39905">
        <ele>42</ele>
        <time>2023-10-29T20:33:32Z</time>
      </trkpt>
      <trkpt lat="47.07618" lon="-1.39908">
        <ele>43</ele>
        <time>2023-10-29T20:34:43Z</time>
      </trkpt>
      <trkpt lat="47.07519" lon="-1.39758">
        <ele>39</ele>
        <time>2023-10-29T20:37:53Z</time>
      </trkpt>
      <trkpt lat="47.07537" lon="-1.39722">
        <ele>39</ele>
        <time>2023-10-29T20:38:33Z</time>
      </trkpt>
      <trkpt lat="47.07733" lon="-1.39758">
        <ele>37</ele>
        <time>2023-10-29T20:42:57Z</time>
      </trkpt>
      <trkpt lat="47.07747" lon="-1.39797">
        <ele>38</ele>
        <time>2023-10-29T20:43:37Z</time>
      </trkpt>
    </trkseg>
  </trk>
</gpx>